sensor_id;sensor_type;location;lat;lon;timestamp;temperature;humidity
26103;DHT22;32703;49.182;9.042;2022-08-06T00:01:49;20.30;75.10
26103;DHT22;32703;49.182;9.042;2022-08-06T00:04:15;20.30;75.00
26103;DHT22;32703;49.182;9.042;2022-08-06T00:06:40;20.30;74.80
26103;DHT22;32703;49.182;9.042;2022-08-06T00:09:06;20.20;74.70
26103;DHT22;32703;49.182;9.042;2022-08-06T00:11:31;20.20;75.00
26103;DHT22;32703;49.182;9.042;2022-08-06T00:13:57;20.20;75.20
26103;DHT22;32703;49.182;9.042;2022-08-06T00:16:23;20.20;75.10
26103;DHT22;32703;49.182;9.042;2022-08-06T00:18:48;20.20;75.50
26103;DHT22;32703;49.182;9.042;2022-08-06T00:21:14;20.20;75.60
26103;DHT22;32703;49.182;9.042;2022-08-06T00:23:39;20.20;75.70
26103;DHT22;32703;49.182;9.042;2022-08-06T00:26:05;20.10;75.80
26103;DHT22;32703;49.182;9.042;2022-08-06T00:28:30;20.10;75.90
26103;DHT22;32703;49.182;9.042;2022-08-06T00:30:56;20.10;76.10
26103;DHT22;32703;49.182;9.042;2022-08-06T00:33:22;20.10;76.30
26103;DHT22;32703;49.182;9.042;2022-08-06T00:35:47;20.10;76.50
26103;DHT22;32703;49.182;9.042;2022-08-06T00:38:13;20.10;76.70
26103;DHT22;32703;49.182;9.042;2022-08-06T00:40:39;20.00;76.80
26103;DHT22;32703;49.182;9.042;2022-08-06T00:43:05;20.00;76.80
26103;DHT22;32703;49.182;9.042;2022-08-06T00:45:32;19.90;77.00
26103;DHT22;32703;49.182;9.042;2022-08-06T00:47:59;20.00;77.20
26103;DHT22;32703;49.182;9.042;2022-08-06T00:50:25;19.90;77.40
26103;DHT22;32703;49.182;9.042;2022-08-06T00:52:50;19.80;77.50
26103;DHT22;32703;49.182;9.042;2022-08-06T00:55:16;19.80;77.70
26103;DHT22;32703;49.182;9.042;2022-08-06T00:57:41;19.70;78.10
26103;DHT22;32703;49.182;9.042;2022-08-06T01:00:08;19.70;78.40
26103;DHT22;32703;49.182;9.042;2022-08-06T01:02:34;19.60;78.70
26103;DHT22;32703;49.182;9.042;2022-08-06T01:05:00;19.60;79.10
26103;DHT22;32703;49.182;9.042;2022-08-06T01:07:25;19.50;79.50
26103;DHT22;32703;49.182;9.042;2022-08-06T01:09:51;19.40;79.70
26103;DHT22;32703;49.182;9.042;2022-08-06T01:12:17;19.50;80.00
26103;DHT22;32703;49.182;9.042;2022-08-06T01:14:43;19.40;80.10
26103;DHT22;32703;49.182;9.042;2022-08-06T01:17:34;19.30;80.20
26103;DHT22;32703;49.182;9.042;2022-08-06T01:28:40;19.10;81.80
26103;DHT22;32703;49.182;9.042;2022-08-06T01:31:12;19.10;82.10
26103;DHT22;32703;49.182;9.042;2022-08-06T01:33:44;19.10;82.30
26103;DHT22;32703;49.182;9.042;2022-08-06T01:36:16;19.10;82.50
26103;DHT22;32703;49.182;9.042;2022-08-06T01:38:46;19.10;82.60
26103;DHT22;32703;49.182;9.042;2022-08-06T01:41:17;19.10;82.70
26103;DHT22;32703;49.182;9.042;2022-08-06T01:44:06;19.10;82.70
26103;DHT22;32703;49.182;9.042;2022-08-06T01:46:36;19.00;82.70
26103;DHT22;32703;49.182;9.042;2022-08-06T01:49:04;19.10;82.80
26103;DHT22;32703;49.182;9.042;2022-08-06T01:51:31;19.10;82.90
26103;DHT22;32703;49.182;9.042;2022-08-06T01:54:00;19.00;83.00
26103;DHT22;32703;49.182;9.042;2022-08-06T01:56:27;19.10;83.00
26103;DHT22;32703;49.182;9.042;2022-08-06T01:58:58;19.10;83.00
26103;DHT22;32703;49.182;9.042;2022-08-06T02:01:26;19.10;83.00
26103;DHT22;32703;49.182;9.042;2022-08-06T02:03:54;19.10;83.10
26103;DHT22;32703;49.182;9.042;2022-08-06T02:06:31;19.10;83.10
26103;DHT22;32703;49.182;9.042;2022-08-06T02:09:01;19.00;83.10
26103;DHT22;32703;49.182;9.042;2022-08-06T02:11:27;19.10;83.30
26103;DHT22;32703;49.182;9.042;2022-08-06T02:13:55;19.10;83.30
26103;DHT22;32703;49.182;9.042;2022-08-06T02:16:22;19.10;83.40
26103;DHT22;32703;49.182;9.042;2022-08-06T02:18:51;19.00;83.30
26103;DHT22;32703;49.182;9.042;2022-08-06T02:21:20;19.00;83.30
26103;DHT22;32703;49.182;9.042;2022-08-06T02:23:47;19.10;83.50
26103;DHT22;32703;49.182;9.042;2022-08-06T02:26:14;19.00;83.60
26103;DHT22;32703;49.182;9.042;2022-08-06T02:28:42;18.90;83.60
26103;DHT22;32703;49.182;9.042;2022-08-06T02:31:09;18.90;83.80
26103;DHT22;32703;49.182;9.042;2022-08-06T02:33:34;18.90;83.90
26103;DHT22;32703;49.182;9.042;2022-08-06T02:36:06;18.90;84.00
26103;DHT22;32703;49.182;9.042;2022-08-06T02:39:03;18.90;84.20
26103;DHT22;32703;49.182;9.042;2022-08-06T02:41:36;18.90;84.30
26103;DHT22;32703;49.182;9.042;2022-08-06T02:44:09;18.80;84.30
26103;DHT22;32703;49.182;9.042;2022-08-06T02:47:04;18.80;84.60
26103;DHT22;32703;49.182;9.042;2022-08-06T02:49:33;18.80;84.60
26103;DHT22;32703;49.182;9.042;2022-08-06T02:52:08;18.70;84.60
26103;DHT22;32703;49.182;9.042;2022-08-06T02:57:04;18.70;85.00
26103;DHT22;32703;49.182;9.042;2022-08-06T02:59:35;18.60;85.10
26103;DHT22;32703;49.182;9.042;2022-08-06T03:02:03;18.60;85.30
26103;DHT22;32703;49.182;9.042;2022-08-06T03:04:32;18.50;85.60
26103;DHT22;32703;49.182;9.042;2022-08-06T03:07:02;18.40;85.90
26103;DHT22;32703;49.182;9.042;2022-08-06T03:09:29;18.40;86.30
26103;DHT22;32703;49.182;9.042;2022-08-06T03:11:55;18.30;86.50
26103;DHT22;32703;49.182;9.042;2022-08-06T03:14:22;18.30;86.90
26103;DHT22;32703;49.182;9.042;2022-08-06T03:16:49;18.30;87.10
26103;DHT22;32703;49.182;9.042;2022-08-06T03:19:15;18.20;87.10
26103;DHT22;32703;49.182;9.042;2022-08-06T03:21:43;18.20;87.40
26103;DHT22;32703;49.182;9.042;2022-08-06T03:24:12;18.10;87.60
26103;DHT22;32703;49.182;9.042;2022-08-06T03:26:39;18.10;88.00
26103;DHT22;32703;49.182;9.042;2022-08-06T03:29:05;18.10;88.20
26103;DHT22;32703;49.182;9.042;2022-08-06T03:31:32;18.00;88.20
26103;DHT22;32703;49.182;9.042;2022-08-06T03:33:58;18.00;88.40
26103;DHT22;32703;49.182;9.042;2022-08-06T03:36:25;17.90;88.80
26103;DHT22;32703;49.182;9.042;2022-08-06T03:38:55;17.90;89.10
26103;DHT22;32703;49.182;9.042;2022-08-06T03:41:23;17.80;89.30
26103;DHT22;32703;49.182;9.042;2022-08-06T03:43:49;17.80;89.70
26103;DHT22;32703;49.182;9.042;2022-08-06T03:46:20;17.70;90.00
26103;DHT22;32703;49.182;9.042;2022-08-06T03:48:47;17.60;90.10
26103;DHT22;32703;49.182;9.042;2022-08-06T03:51:17;17.60;90.30
26103;DHT22;32703;49.182;9.042;2022-08-06T03:53:44;17.50;90.40
26103;DHT22;32703;49.182;9.042;2022-08-06T03:56:15;17.40;90.60
26103;DHT22;32703;49.182;9.042;2022-08-06T03:58:43;17.30;90.70
26103;DHT22;32703;49.182;9.042;2022-08-06T04:01:12;17.30;90.80
26103;DHT22;32703;49.182;9.042;2022-08-06T04:03:40;17.20;91.00
26103;DHT22;32703;49.182;9.042;2022-08-06T04:06:07;17.10;91.20
26103;DHT22;32703;49.182;9.042;2022-08-06T04:08:35;17.00;91.20
26103;DHT22;32703;49.182;9.042;2022-08-06T04:11:02;17.00;91.40
26103;DHT22;32703;49.182;9.042;2022-08-06T04:13:28;16.90;91.50
26103;DHT22;32703;49.182;9.042;2022-08-06T04:15:55;16.80;91.80
26103;DHT22;32703;49.182;9.042;2022-08-06T04:18:30;16.80;92.00
26103;DHT22;32703;49.182;9.042;2022-08-06T04:21:00;16.70;92.30
26103;DHT22;32703;49.182;9.042;2022-08-06T04:23:27;16.70;92.50
26103;DHT22;32703;49.182;9.042;2022-08-06T04:25:58;16.60;92.80
26103;DHT22;32703;49.182;9.042;2022-08-06T04:28:27;16.50;93.10
26103;DHT22;32703;49.182;9.042;2022-08-06T04:30:54;16.50;93.50
26103;DHT22;32703;49.182;9.042;2022-08-06T04:33:23;16.30;93.70
26103;DHT22;32703;49.182;9.042;2022-08-06T04:35:50;16.40;94.00
26103;DHT22;32703;49.182;9.042;2022-08-06T04:38:17;16.40;94.20
26103;DHT22;32703;49.182;9.042;2022-08-06T04:40:43;16.30;94.30
26103;DHT22;32703;49.182;9.042;2022-08-06T04:43:10;16.40;94.60
26103;DHT22;32703;49.182;9.042;2022-08-06T04:45:37;16.40;94.70
26103;DHT22;32703;49.182;9.042;2022-08-06T04:48:06;16.30;94.80
26103;DHT22;32703;49.182;9.042;2022-08-06T04:50:34;16.30;95.00
26103;DHT22;32703;49.182;9.042;2022-08-06T04:53:14;16.30;95.20
26103;DHT22;32703;49.182;9.042;2022-08-06T04:55:42;16.30;95.30
26103;DHT22;32703;49.182;9.042;2022-08-06T04:58:09;16.40;95.30
26103;DHT22;32703;49.182;9.042;2022-08-06T05:00:39;16.50;95.30
26103;DHT22;32703;49.182;9.042;2022-08-06T05:03:05;16.50;95.30
26103;DHT22;32703;49.182;9.042;2022-08-06T05:05:42;16.60;95.30
26103;DHT22;32703;49.182;9.042;2022-08-06T05:08:08;16.60;95.20
26103;DHT22;32703;49.182;9.042;2022-08-06T05:10:48;16.60;95.20
26103;DHT22;32703;49.182;9.042;2022-08-06T05:13:19;16.70;95.20
26103;DHT22;32703;49.182;9.042;2022-08-06T05:15:50;16.70;95.20
26103;DHT22;32703;49.182;9.042;2022-08-06T05:18:23;16.80;95.20
26103;DHT22;32703;49.182;9.042;2022-08-06T05:20:53;16.80;95.10
26103;DHT22;32703;49.182;9.042;2022-08-06T05:23:27;16.80;95.20
26103;DHT22;32703;49.182;9.042;2022-08-06T05:25:53;17.00;95.20
26103;DHT22;32703;49.182;9.042;2022-08-06T05:28:19;17.10;95.20
26103;DHT22;32703;49.182;9.042;2022-08-06T05:30:45;17.20;94.90
26103;DHT22;32703;49.182;9.042;2022-08-06T05:33:11;17.30;94.70
26103;DHT22;32703;49.182;9.042;2022-08-06T05:35:37;17.30;94.50
26103;DHT22;32703;49.182;9.042;2022-08-06T05:38:02;17.40;94.40
26103;DHT22;32703;49.182;9.042;2022-08-06T05:40:28;17.50;94.20
26103;DHT22;32703;49.182;9.042;2022-08-06T05:42:59;17.60;94.00
26103;DHT22;32703;49.182;9.042;2022-08-06T05:45:26;17.60;93.90
26103;DHT22;32703;49.182;9.042;2022-08-06T05:47:53;17.70;93.70
26103;DHT22;32703;49.182;9.042;2022-08-06T05:50:22;17.80;93.60
26103;DHT22;32703;49.182;9.042;2022-08-06T05:52:57;17.80;93.40
26103;DHT22;32703;49.182;9.042;2022-08-06T05:55:32;17.90;93.40
26103;DHT22;32703;49.182;9.042;2022-08-06T05:58:03;17.90;93.00
26103;DHT22;32703;49.182;9.042;2022-08-06T06:00:32;17.90;92.60
26103;DHT22;32703;49.182;9.042;2022-08-06T06:02:59;17.90;92.60
26103;DHT22;32703;49.182;9.042;2022-08-06T06:05:25;18.00;92.40
26103;DHT22;32703;49.182;9.042;2022-08-06T06:07:52;18.00;92.10
26103;DHT22;32703;49.182;9.042;2022-08-06T06:10:21;18.10;92.10
26103;DHT22;32703;49.182;9.042;2022-08-06T06:12:48;18.10;91.90
26103;DHT22;32703;49.182;9.042;2022-08-06T06:15:17;18.20;91.90
26103;DHT22;32703;49.182;9.042;2022-08-06T06:20:58;18.30;91.50
26103;DHT22;32703;49.182;9.042;2022-08-06T06:23:34;18.30;90.80
26103;DHT22;32703;49.182;9.042;2022-08-06T06:34:09;18.50;90.00
26103;DHT22;32703;49.182;9.042;2022-08-06T06:39:31;18.60;88.50
26103;DHT22;32703;49.182;9.042;2022-08-06T06:42:06;18.80;88.20
26103;DHT22;32703;49.182;9.042;2022-08-06T06:44:44;18.90;87.90
26103;DHT22;32703;49.182;9.042;2022-08-06T06:47:40;19.00;87.10
26103;DHT22;32703;49.182;9.042;2022-08-06T06:50:13;19.10;85.60
26103;DHT22;32703;49.182;9.042;2022-08-06T06:52:42;19.30;83.50
26103;DHT22;32703;49.182;9.042;2022-08-06T06:55:23;19.40;82.80
26103;DHT22;32703;49.182;9.042;2022-08-06T06:57:55;19.50;82.50
26103;DHT22;32703;49.182;9.042;2022-08-06T07:00:22;19.70;81.80
26103;DHT22;32703;49.182;9.042;2022-08-06T07:02:50;19.90;81.50
26103;DHT22;32703;49.182;9.042;2022-08-06T07:05:16;20.00;79.80
26103;DHT22;32703;49.182;9.042;2022-08-06T07:07:45;20.10;76.50
26103;DHT22;32703;49.182;9.042;2022-08-06T07:10:12;20.20;75.20
26103;DHT22;32703;49.182;9.042;2022-08-06T07:12:40;20.30;73.80
26103;DHT22;32703;49.182;9.042;2022-08-06T07:15:09;20.40;73.40
26103;DHT22;32703;49.182;9.042;2022-08-06T07:17:37;20.40;72.40
26103;DHT22;32703;49.182;9.042;2022-08-06T07:20:07;20.60;72.20
26103;DHT22;32703;49.182;9.042;2022-08-06T07:22:35;20.70;70.10
26103;DHT22;32703;49.182;9.042;2022-08-06T07:25:02;20.80;70.00
26103;DHT22;32703;49.182;9.042;2022-08-06T07:27:38;20.90;69.60
26103;DHT22;32703;49.182;9.042;2022-08-06T07:30:05;21.00;68.00
26103;DHT22;32703;49.182;9.042;2022-08-06T07:32:33;21.10;66.90
26103;DHT22;32703;49.182;9.042;2022-08-06T07:35:01;21.30;65.90
26103;DHT22;32703;49.182;9.042;2022-08-06T07:37:29;21.40;65.50
26103;DHT22;32703;49.182;9.042;2022-08-06T07:39:57;21.60;63.30
26103;DHT22;32703;49.182;9.042;2022-08-06T07:42:25;21.80;62.20
26103;DHT22;32703;49.182;9.042;2022-08-06T07:44:55;21.90;61.60
26103;DHT22;32703;49.182;9.042;2022-08-06T07:47:29;22.10;61.50
26103;DHT22;32703;49.182;9.042;2022-08-06T07:49:57;22.20;60.60
26103;DHT22;32703;49.182;9.042;2022-08-06T07:52:24;22.40;59.70
26103;DHT22;32703;49.182;9.042;2022-08-06T07:54:51;22.40;59.30
26103;DHT22;32703;49.182;9.042;2022-08-06T07:57:17;22.40;58.50
26103;DHT22;32703;49.182;9.042;2022-08-06T07:59:44;22.50;57.50
26103;DHT22;32703;49.182;9.042;2022-08-06T08:02:10;22.50;57.30
26103;DHT22;32703;49.182;9.042;2022-08-06T08:04:36;22.70;57.30
26103;DHT22;32703;49.182;9.042;2022-08-06T08:07:22;22.70;57.50
26103;DHT22;32703;49.182;9.042;2022-08-06T08:09:48;22.90;56.10
26103;DHT22;32703;49.182;9.042;2022-08-06T08:12:17;23.00;55.60
26103;DHT22;32703;49.182;9.042;2022-08-06T08:14:44;23.10;55.60
26103;DHT22;32703;49.182;9.042;2022-08-06T08:17:10;23.10;55.30
26103;DHT22;32703;49.182;9.042;2022-08-06T08:19:36;23.20;54.90
26103;DHT22;32703;49.182;9.042;2022-08-06T08:22:13;23.20;54.90
26103;DHT22;32703;49.182;9.042;2022-08-06T08:24:40;23.30;54.30
26103;DHT22;32703;49.182;9.042;2022-08-06T08:27:07;23.50;54.00
26103;DHT22;32703;49.182;9.042;2022-08-06T08:29:34;23.70;54.30
26103;DHT22;32703;49.182;9.042;2022-08-06T08:32:01;23.80;53.30
26103;DHT22;32703;49.182;9.042;2022-08-06T08:34:27;23.90;53.20
26103;DHT22;32703;49.182;9.042;2022-08-06T08:36:52;24.00;52.70
26103;DHT22;32703;49.182;9.042;2022-08-06T08:39:18;24.10;52.30
26103;DHT22;32703;49.182;9.042;2022-08-06T08:41:49;24.20;51.60
26103;DHT22;32703;49.182;9.042;2022-08-06T08:44:25;24.30;51.60
26103;DHT22;32703;49.182;9.042;2022-08-06T08:46:58;24.40;50.90
26103;DHT22;32703;49.182;9.042;2022-08-06T08:49:47;24.40;51.20
26103;DHT22;32703;49.182;9.042;2022-08-06T08:52:15;24.50;51.10
26103;DHT22;32703;49.182;9.042;2022-08-06T08:54:46;24.50;50.40
26103;DHT22;32703;49.182;9.042;2022-08-06T08:57:14;24.50;50.50
26103;DHT22;32703;49.182;9.042;2022-08-06T08:59:41;24.50;51.30
26103;DHT22;32703;49.182;9.042;2022-08-06T09:02:11;24.60;51.20
26103;DHT22;32703;49.182;9.042;2022-08-06T09:04:37;24.80;50.60
26103;DHT22;32703;49.182;9.042;2022-08-06T09:07:04;24.90;50.20
26103;DHT22;32703;49.182;9.042;2022-08-06T09:09:32;25.10;50.10
26103;DHT22;32703;49.182;9.042;2022-08-06T09:12:00;25.20;49.40
26103;DHT22;32703;49.182;9.042;2022-08-06T09:14:26;25.30;49.30
26103;DHT22;32703;49.182;9.042;2022-08-06T09:16:54;25.50;49.10
26103;DHT22;32703;49.182;9.042;2022-08-06T09:19:20;25.80;48.70
26103;DHT22;32703;49.182;9.042;2022-08-06T09:21:46;26.10;47.60
26103;DHT22;32703;49.182;9.042;2022-08-06T09:24:12;26.20;47.10
26103;DHT22;32703;49.182;9.042;2022-08-06T09:27:07;26.40;47.20
26103;DHT22;32703;49.182;9.042;2022-08-06T09:29:49;26.50;46.80
26103;DHT22;32703;49.182;9.042;2022-08-06T09:32:39;26.60;46.40
26103;DHT22;32703;49.182;9.042;2022-08-06T09:35:19;26.90;45.70
26103;DHT22;32703;49.182;9.042;2022-08-06T09:37:45;27.20;45.30
26103;DHT22;32703;49.182;9.042;2022-08-06T09:40:19;27.20;44.60
26103;DHT22;32703;49.182;9.042;2022-08-06T09:42:47;27.10;44.10
26103;DHT22;32703;49.182;9.042;2022-08-06T09:45:17;26.80;44.30
26103;DHT22;32703;49.182;9.042;2022-08-06T09:47:45;26.70;45.80
26103;DHT22;32703;49.182;9.042;2022-08-06T09:50:11;26.80;45.60
26103;DHT22;32703;49.182;9.042;2022-08-06T09:52:38;27.00;45.10
26103;DHT22;32703;49.182;9.042;2022-08-06T09:55:05;27.20;44.50
26103;DHT22;32703;49.182;9.042;2022-08-06T09:57:44;27.20;44.40
26103;DHT22;32703;49.182;9.042;2022-08-06T10:00:11;27.30;44.60
26103;DHT22;32703;49.182;9.042;2022-08-06T10:02:39;27.60;43.10
26103;DHT22;32703;49.182;9.042;2022-08-06T10:05:10;27.70;43.50
26103;DHT22;32703;49.182;9.042;2022-08-06T10:07:36;27.80;43.30
26103;DHT22;32703;49.182;9.042;2022-08-06T10:10:03;27.80;43.50
26103;DHT22;32703;49.182;9.042;2022-08-06T10:12:30;27.80;43.10
26103;DHT22;32703;49.182;9.042;2022-08-06T10:14:56;27.90;42.70
26103;DHT22;32703;49.182;9.042;2022-08-06T10:17:25;28.10;42.70
26103;DHT22;32703;49.182;9.042;2022-08-06T10:20:09;28.40;42.80
26103;DHT22;32703;49.182;9.042;2022-08-06T10:22:50;28.70;41.30
26103;DHT22;32703;49.182;9.042;2022-08-06T10:25:16;29.00;41.10
26103;DHT22;32703;49.182;9.042;2022-08-06T10:27:43;29.50;39.80
26103;DHT22;32703;49.182;9.042;2022-08-06T10:30:10;29.90;40.00
26103;DHT22;32703;49.182;9.042;2022-08-06T10:35:26;30.30;39.10
26103;DHT22;32703;49.182;9.042;2022-08-06T10:38:06;30.50;38.60
26103;DHT22;32703;49.182;9.042;2022-08-06T10:40:48;30.70;38.00
26103;DHT22;32703;49.182;9.042;2022-08-06T10:43:15;30.70;37.70
26103;DHT22;32703;49.182;9.042;2022-08-06T10:45:43;30.90;37.80
26103;DHT22;32703;49.182;9.042;2022-08-06T10:48:13;30.90;36.90
26103;DHT22;32703;49.182;9.042;2022-08-06T10:50:45;30.80;38.60
26103;DHT22;32703;49.182;9.042;2022-08-06T10:53:11;30.80;38.00
26103;DHT22;32703;49.182;9.042;2022-08-06T10:58:47;30.70;36.80
26103;DHT22;32703;49.182;9.042;2022-08-06T11:01:51;30.70;36.90
26103;DHT22;32703;49.182;9.042;2022-08-06T11:04:41;30.80;36.90
26103;DHT22;32703;49.182;9.042;2022-08-06T11:08:08;31.20;36.80
26103;DHT22;32703;49.182;9.042;2022-08-06T11:10:10;31.80;36.30
26103;DHT22;32703;49.182;9.042;2022-08-06T11:13:03;32.60;35.40
26103;DHT22;32703;49.182;9.042;2022-08-06T11:15:36;33.40;33.40
26103;DHT22;32703;49.182;9.042;2022-08-06T11:18:07;33.40;32.80
26103;DHT22;32703;49.182;9.042;2022-08-06T11:23:22;32.70;33.20
26103;DHT22;32703;49.182;9.042;2022-08-06T11:25:54;32.30;33.60
26103;DHT22;32703;49.182;9.042;2022-08-06T11:30:58;31.60;34.60
26103;DHT22;32703;49.182;9.042;2022-08-06T11:36:00;31.10;34.50
26103;DHT22;32703;49.182;9.042;2022-08-06T11:41:20;31.80;35.30
26103;DHT22;32703;49.182;9.042;2022-08-06T11:51:41;32.70;33.70
26103;DHT22;32703;49.182;9.042;2022-08-06T11:59:29;32.10;34.00
26103;DHT22;32703;49.182;9.042;2022-08-06T12:01:59;32.00;34.80
26103;DHT22;32703;49.182;9.042;2022-08-06T12:10:07;32.50;33.50
26103;DHT22;32703;49.182;9.042;2022-08-06T12:12:36;32.40;33.90
26103;DHT22;32703;49.182;9.042;2022-08-06T12:17:57;32.10;33.80
26103;DHT22;32703;49.182;9.042;2022-08-06T12:23:01;31.90;33.70
26103;DHT22;32703;49.182;9.042;2022-08-06T12:25:35;31.80;32.90
26103;DHT22;32703;49.182;9.042;2022-08-06T12:28:01;31.50;34.00
26103;DHT22;32703;49.182;9.042;2022-08-06T12:30:37;31.30;34.40
26103;DHT22;32703;49.182;9.042;2022-08-06T12:33:06;31.10;34.80
26103;DHT22;32703;49.182;9.042;2022-08-06T12:35:32;31.10;34.40
26103;DHT22;32703;49.182;9.042;2022-08-06T12:37:57;31.10;34.30
26103;DHT22;32703;49.182;9.042;2022-08-06T12:40:23;31.10;34.40
26103;DHT22;32703;49.182;9.042;2022-08-06T12:42:49;31.10;34.40
26103;DHT22;32703;49.182;9.042;2022-08-06T12:45:23;31.10;34.30
26103;DHT22;32703;49.182;9.042;2022-08-06T12:48:09;30.90;34.60
26103;DHT22;32703;49.182;9.042;2022-08-06T12:50:40;30.80;34.80
26103;DHT22;32703;49.182;9.042;2022-08-06T12:55:34;30.90;34.60
26103;DHT22;32703;49.182;9.042;2022-08-06T12:58:01;30.80;34.50
26103;DHT22;32703;49.182;9.042;2022-08-06T13:00:28;30.80;34.30
26103;DHT22;32703;49.182;9.042;2022-08-06T13:02:55;30.80;34.70
26103;DHT22;32703;49.182;9.042;2022-08-06T13:05:26;30.60;35.00
26103;DHT22;32703;49.182;9.042;2022-08-06T13:07:56;30.70;34.90
26103;DHT22;32703;49.182;9.042;2022-08-06T13:10:23;30.90;34.40
26103;DHT22;32703;49.182;9.042;2022-08-06T13:12:56;31.10;34.40
26103;DHT22;32703;49.182;9.042;2022-08-06T13:15:29;31.20;34.40
26103;DHT22;32703;49.182;9.042;2022-08-06T13:20:47;30.90;34.60
26103;DHT22;32703;49.182;9.042;2022-08-06T13:23:15;30.70;34.10
26103;DHT22;32703;49.182;9.042;2022-08-06T13:25:49;30.40;34.90
26103;DHT22;32703;49.182;9.042;2022-08-06T13:28:19;30.10;35.40
26103;DHT22;32703;49.182;9.042;2022-08-06T13:30:46;29.80;35.30
26103;DHT22;32703;49.182;9.042;2022-08-06T13:33:20;29.40;35.70
26103;DHT22;32703;49.182;9.042;2022-08-06T13:35:51;28.90;35.90
26103;DHT22;32703;49.182;9.042;2022-08-06T13:38:28;28.60;36.60
26103;DHT22;32703;49.182;9.042;2022-08-06T13:40:57;28.40;38.10
26103;DHT22;32703;49.182;9.042;2022-08-06T13:43:39;28.30;38.60
26103;DHT22;32703;49.182;9.042;2022-08-06T13:46:08;28.30;38.80
26103;DHT22;32703;49.182;9.042;2022-08-06T13:48:34;28.30;38.60
26103;DHT22;32703;49.182;9.042;2022-08-06T13:51:00;28.40;38.00
26103;DHT22;32703;49.182;9.042;2022-08-06T13:53:26;28.40;37.50
26103;DHT22;32703;49.182;9.042;2022-08-06T13:55:51;28.40;37.40
26103;DHT22;32703;49.182;9.042;2022-08-06T13:58:17;28.30;38.20
26103;DHT22;32703;49.182;9.042;2022-08-06T14:00:42;28.00;37.90
26103;DHT22;32703;49.182;9.042;2022-08-06T14:03:12;27.80;37.70
26103;DHT22;32703;49.182;9.042;2022-08-06T14:05:38;27.60;38.50
26103;DHT22;32703;49.182;9.042;2022-08-06T14:08:04;27.40;38.50
26103;DHT22;32703;49.182;9.042;2022-08-06T14:10:29;27.20;38.90
26103;DHT22;32703;49.182;9.042;2022-08-06T14:12:58;27.00;39.00
26103;DHT22;32703;49.182;9.042;2022-08-06T14:15:48;26.90;39.00
26103;DHT22;32703;49.182;9.042;2022-08-06T14:18:15;26.80;39.80
26103;DHT22;32703;49.182;9.042;2022-08-06T14:20:42;26.70;39.50
26103;DHT22;32703;49.182;9.042;2022-08-06T14:23:08;26.70;38.50
26103;DHT22;32703;49.182;9.042;2022-08-06T14:25:34;26.60;39.00
26103;DHT22;32703;49.182;9.042;2022-08-06T14:28:00;26.40;39.10
26103;DHT22;32703;49.182;9.042;2022-08-06T14:30:26;26.40;38.80
26103;DHT22;32703;49.182;9.042;2022-08-06T14:32:53;26.30;39.80
26103;DHT22;32703;49.182;9.042;2022-08-06T14:35:19;26.30;40.20
26103;DHT22;32703;49.182;9.042;2022-08-06T14:37:45;26.40;40.00
26103;DHT22;32703;49.182;9.042;2022-08-06T14:40:12;26.40;39.80
26103;DHT22;32703;49.182;9.042;2022-08-06T14:42:38;26.50;40.20
26103;DHT22;32703;49.182;9.042;2022-08-06T14:45:23;26.60;39.70
26103;DHT22;32703;49.182;9.042;2022-08-06T14:47:49;26.60;39.80
26103;DHT22;32703;49.182;9.042;2022-08-06T14:50:15;26.60;39.90
26103;DHT22;32703;49.182;9.042;2022-08-06T14:52:41;26.60;39.80
26103;DHT22;32703;49.182;9.042;2022-08-06T14:55:07;26.60;40.00
26103;DHT22;32703;49.182;9.042;2022-08-06T14:57:34;26.50;40.00
26103;DHT22;32703;49.182;9.042;2022-08-06T15:00:02;26.50;39.90
26103;DHT22;32703;49.182;9.042;2022-08-06T15:02:28;26.40;39.90
26103;DHT22;32703;49.182;9.042;2022-08-06T15:04:54;26.40;40.00
26103;DHT22;32703;49.182;9.042;2022-08-06T15:07:20;26.40;40.20
26103;DHT22;32703;49.182;9.042;2022-08-06T15:09:46;26.40;39.80
26103;DHT22;32703;49.182;9.042;2022-08-06T15:12:12;26.40;39.40
26103;DHT22;32703;49.182;9.042;2022-08-06T15:14:38;26.30;39.30
26103;DHT22;32703;49.182;9.042;2022-08-06T15:17:03;26.30;39.40
26103;DHT22;32703;49.182;9.042;2022-08-06T15:19:29;26.30;38.90
26103;DHT22;32703;49.182;9.042;2022-08-06T15:21:55;26.30;38.90
26103;DHT22;32703;49.182;9.042;2022-08-06T15:24:22;26.20;37.90
26103;DHT22;32703;49.182;9.042;2022-08-06T15:26:48;26.20;38.40
26103;DHT22;32703;49.182;9.042;2022-08-06T15:29:13;26.20;37.60
26103;DHT22;32703;49.182;9.042;2022-08-06T15:31:45;26.20;37.50
26103;DHT22;32703;49.182;9.042;2022-08-06T15:34:11;26.20;37.90
26103;DHT22;32703;49.182;9.042;2022-08-06T15:36:38;26.20;37.90
26103;DHT22;32703;49.182;9.042;2022-08-06T15:39:04;26.20;37.70
26103;DHT22;32703;49.182;9.042;2022-08-06T15:41:29;26.20;38.10
26103;DHT22;32703;49.182;9.042;2022-08-06T15:43:57;26.30;38.40
26103;DHT22;32703;49.182;9.042;2022-08-06T15:46:23;26.30;38.50
26103;DHT22;32703;49.182;9.042;2022-08-06T15:48:49;26.30;38.00
26103;DHT22;32703;49.182;9.042;2022-08-06T15:51:14;26.30;37.30
26103;DHT22;32703;49.182;9.042;2022-08-06T15:53:40;26.20;37.00
26103;DHT22;32703;49.182;9.042;2022-08-06T15:56:06;26.20;37.40
26103;DHT22;32703;49.182;9.042;2022-08-06T15:58:31;26.30;37.70
26103;DHT22;32703;49.182;9.042;2022-08-06T16:00:57;26.20;37.60
26103;DHT22;32703;49.182;9.042;2022-08-06T16:03:23;26.20;38.20
26103;DHT22;32703;49.182;9.042;2022-08-06T16:05:49;26.30;38.40
26103;DHT22;32703;49.182;9.042;2022-08-06T16:08:17;26.30;38.10
26103;DHT22;32703;49.182;9.042;2022-08-06T16:10:44;26.30;37.90
26103;DHT22;32703;49.182;9.042;2022-08-06T16:13:12;26.30;37.70
26103;DHT22;32703;49.182;9.042;2022-08-06T16:15:41;26.30;37.60
26103;DHT22;32703;49.182;9.042;2022-08-06T16:18:07;26.30;37.30
26103;DHT22;32703;49.182;9.042;2022-08-06T16:20:33;26.30;38.00
26103;DHT22;32703;49.182;9.042;2022-08-06T16:22:59;26.30;38.20
26103;DHT22;32703;49.182;9.042;2022-08-06T16:25:24;26.30;37.90
26103;DHT22;32703;49.182;9.042;2022-08-06T16:27:50;26.20;38.10
26103;DHT22;32703;49.182;9.042;2022-08-06T16:30:16;26.30;37.60
26103;DHT22;32703;49.182;9.042;2022-08-06T16:32:42;26.30;37.90
26103;DHT22;32703;49.182;9.042;2022-08-06T16:35:07;26.30;38.20
26103;DHT22;32703;49.182;9.042;2022-08-06T16:37:33;26.40;37.90
26103;DHT22;32703;49.182;9.042;2022-08-06T16:39:59;26.40;37.60
26103;DHT22;32703;49.182;9.042;2022-08-06T16:42:25;26.40;37.20
26103;DHT22;32703;49.182;9.042;2022-08-06T16:44:50;26.40;37.30
26103;DHT22;32703;49.182;9.042;2022-08-06T16:47:16;26.50;36.80
26103;DHT22;32703;49.182;9.042;2022-08-06T16:49:42;26.50;36.40
26103;DHT22;32703;49.182;9.042;2022-08-06T16:52:10;26.50;36.70
26103;DHT22;32703;49.182;9.042;2022-08-06T16:54:36;26.50;36.70